createdAt,value
2019-03-27T00:00:39.141Z,51.02
2019-03-27T00:03:07.525Z,50.93
2019-03-27T00:05:35.914Z,51.06
2019-03-27T00:08:04.370Z,51.00
2019-03-27T00:10:32.773Z,50.97
2019-03-27T00:13:01.155Z,50.97
2019-03-27T00:15:29.561Z,50.98
2019-03-27T00:17:57.962Z,51.05
2019-03-27T00:20:26.342Z,51.01
2019-03-27T00:22:54.728Z,50.98
2019-03-27T00:25:23.113Z,51.04
2019-03-27T00:27:51.489Z,50.92
2019-03-27T00:30:19.947Z,50.88
2019-03-27T00:32:48.334Z,50.88
2019-03-27T00:35:16.712Z,50.99
2019-03-27T00:37:45.115Z,50.80
2019-03-27T00:40:13.584Z,51.08
2019-03-27T00:42:41.977Z,51.03
2019-03-27T00:45:10.693Z,51.03
2019-03-27T00:47:39.091Z,51.02
2019-03-27T00:50:10.569Z,51.06
2019-03-27T00:52:39.402Z,50.95
2019-03-27T00:55:08.778Z,51.01
2019-03-27T00:57:37.355Z,50.98
2019-03-27T01:00:08.776Z,50.96
2019-03-27T01:02:37.172Z,50.99
2019-03-27T01:05:06.584Z,51.06
2019-03-27T01:07:34.994Z,50.95
2019-03-27T01:10:03.440Z,51.06
2019-03-27T01:12:31.832Z,51.01
2019-03-27T01:15:00.327Z,50.98
2019-03-27T01:17:28.678Z,50.90
2019-03-27T01:19:57.057Z,50.97
2019-03-27T01:22:25.454Z,51.13
2019-03-27T01:24:53.827Z,51.01
2019-03-27T01:27:22.215Z,51.08
2019-03-27T01:29:50.641Z,50.98
2019-03-27T01:32:19.049Z,50.98
2019-03-27T01:34:47.430Z,50.91
2019-03-27T01:37:15.826Z,50.89
2019-03-27T01:39:44.203Z,51.00
2019-03-27T01:42:12.592Z,50.94
2019-03-27T01:44:40.986Z,51.05
2019-03-27T01:47:09.372Z,51.00
2019-03-27T01:49:37.778Z,51.03
2019-03-27T01:52:08.036Z,50.99
2019-03-27T01:54:36.291Z,50.97
2019-03-27T01:57:04.680Z,50.93
2019-03-27T01:59:33.081Z,50.90
2019-03-27T02:02:01.536Z,51.01
2019-03-27T02:04:29.998Z,50.94
2019-03-27T02:06:58.377Z,50.89
2019-03-27T02:09:26.765Z,51.06
2019-03-27T02:11:55.145Z,50.98
2019-03-27T02:14:23.593Z,50.99
2019-03-27T02:16:51.976Z,50.93
2019-03-27T02:19:20.368Z,51.12
2019-03-27T02:21:48.748Z,51.07
2019-03-27T02:24:17.402Z,51.08
2019-03-27T02:26:45.784Z,51.10
2019-03-27T02:29:14.173Z,51.01
2019-03-27T02:31:42.555Z,51.00
2019-03-27T02:34:10.949Z,51.00
2019-03-27T02:36:39.331Z,51.08
2019-03-27T02:39:07.720Z,50.96
2019-03-27T02:41:36.099Z,50.94
2019-03-27T02:44:04.500Z,51.08
2019-03-27T02:46:32.876Z,50.99
2019-03-27T02:49:01.269Z,50.97
2019-03-27T02:51:29.639Z,51.08
2019-03-27T02:53:58.032Z,51.08
2019-03-27T02:56:26.411Z,51.09
2019-03-27T02:58:54.812Z,51.06
2019-03-27T03:01:23.182Z,50.95
2019-03-27T03:03:51.572Z,51.11
2019-03-27T03:06:19.945Z,51.04
2019-03-27T03:08:48.339Z,50.94
2019-03-27T03:11:16.719Z,51.04
2019-03-27T03:13:45.100Z,51.16
2019-03-27T03:16:13.485Z,51.07
2019-03-27T03:18:41.946Z,50.96
2019-03-27T03:21:10.331Z,51.15
2019-03-27T03:23:38.732Z,51.02
2019-03-27T03:26:07.122Z,50.99
2019-03-27T03:28:35.499Z,51.00
2019-03-27T03:31:03.933Z,50.98
2019-03-27T03:33:32.344Z,50.99
2019-03-27T03:36:00.734Z,51.00
2019-03-27T03:38:29.184Z,51.11
2019-03-27T03:40:57.583Z,51.06
2019-03-27T03:43:25.960Z,51.34
2019-03-27T03:45:54.350Z,51.14
2019-03-27T03:48:22.835Z,51.25
2019-03-27T03:50:54.560Z,51.19
2019-03-27T03:53:23.331Z,51.22
2019-03-27T03:55:52.739Z,51.28
2019-03-27T03:58:22.256Z,51.02
2019-03-27T04:00:51.388Z,51.06
2019-03-27T04:03:20.035Z,51.01
2019-03-27T04:05:48.433Z,51.16
2019-03-27T04:08:16.811Z,51.01
2019-03-27T04:10:45.374Z,51.06
2019-03-27T04:13:13.803Z,51.14
2019-03-27T04:15:42.154Z,51.11
2019-03-27T04:18:10.532Z,51.15
2019-03-27T04:20:39.034Z,51.14
2019-03-27T04:23:07.422Z,51.21
2019-03-27T04:26:06.407Z,51.16
2019-03-27T04:28:05.902Z,51.25
2019-03-27T04:30:34.292Z,51.22
2019-03-27T04:33:02.672Z,51.20
2019-03-27T04:35:31.064Z,51.20
2019-03-27T04:37:59.436Z,51.12
2019-03-27T04:40:27.816Z,51.10
2019-03-27T04:42:56.209Z,51.19
2019-03-27T04:45:24.586Z,51.17
2019-03-27T04:47:52.982Z,51.08
2019-03-27T04:50:21.369Z,51.21
2019-03-27T04:52:49.749Z,51.17
2019-03-27T04:55:18.662Z,51.17
2019-03-27T04:57:47.059Z,51.10
2019-03-27T05:00:15.841Z,51.08
2019-03-27T05:02:44.236Z,51.20
2019-03-27T05:05:12.682Z,51.11
2019-03-27T05:07:41.085Z,51.11
2019-03-27T05:10:09.531Z,51.19
2019-03-27T05:12:38.840Z,51.01
2019-03-27T05:15:08.982Z,51.24
2019-03-27T05:17:45.943Z,51.28
2019-03-27T05:20:08.073Z,51.31
2019-03-27T05:22:36.467Z,51.58
2019-03-27T05:25:05.387Z,51.56
2019-03-27T05:27:36.323Z,51.66
2019-03-27T05:30:05.492Z,51.69
2019-03-27T05:32:33.884Z,51.62
2019-03-27T05:35:02.257Z,51.72
2019-03-27T05:37:30.648Z,51.92
2019-03-27T05:39:59.021Z,51.83
2019-03-27T05:42:27.413Z,51.58
2019-03-27T05:44:55.863Z,51.70
2019-03-27T05:47:24.246Z,52.05
2019-03-27T05:49:52.627Z,52.67
2019-03-27T05:52:21.014Z,53.39
2019-03-27T05:54:49.412Z,53.31
2019-03-27T05:57:17.784Z,53.91
2019-03-27T05:59:46.301Z,53.91
2019-03-27T06:02:14.689Z,53.68
2019-03-27T06:04:43.088Z,53.97
2019-03-27T06:07:11.464Z,54.02
2019-03-27T06:09:39.856Z,54.62
2019-03-27T06:12:08.236Z,54.11
2019-03-27T06:14:36.616Z,54.02
2019-03-27T06:17:05.000Z,54.44
2019-03-27T06:19:33.397Z,54.51
2019-03-27T06:22:01.773Z,54.28
2019-03-27T06:24:30.165Z,54.42
2019-03-27T06:26:58.538Z,54.50
2019-03-27T06:29:26.936Z,54.25
2019-03-27T06:31:55.309Z,54.25
2019-03-27T06:34:23.712Z,53.93
2019-03-27T06:36:52.090Z,53.96
2019-03-27T06:39:20.485Z,54.27
2019-03-27T06:41:49.729Z,54.30
2019-03-27T06:44:18.129Z,54.21
2019-03-27T06:46:46.515Z,54.31
2019-03-27T06:49:14.900Z,54.25
2019-03-27T06:51:43.279Z,54.33
2019-03-27T06:54:11.722Z,54.09
2019-03-27T06:56:40.098Z,54.26
2019-03-27T06:59:08.660Z,54.37
2019-03-27T07:01:37.035Z,54.28
2019-03-27T07:04:10.710Z,53.97
2019-03-27T07:06:35.528Z,54.49
2019-03-27T07:09:05.409Z,54.44
2019-03-27T07:11:33.809Z,54.13
2019-03-27T07:14:02.184Z,53.97
2019-03-27T07:16:30.576Z,54.05
2019-03-27T07:18:58.953Z,53.98
2019-03-27T07:21:27.343Z,53.94
2019-03-27T07:23:55.718Z,53.68
2019-03-27T07:26:24.106Z,53.64
2019-03-27T07:28:52.487Z,53.76
2019-03-27T07:31:20.881Z,53.84
2019-03-27T07:33:49.969Z,53.51
2019-03-27T07:36:18.358Z,53.58
2019-03-27T07:38:46.738Z,53.35
2019-03-27T07:41:15.131Z,53.38
2019-03-27T07:43:43.511Z,53.30
2019-03-27T07:46:11.902Z,53.04
2019-03-27T07:48:52.908Z,52.85
2019-03-27T07:51:10.389Z,52.87
2019-03-27T07:53:38.769Z,52.69
2019-03-27T07:56:07.155Z,52.53
2019-03-27T07:58:35.534Z,52.22
2019-03-27T08:01:03.930Z,52.09
2019-03-27T08:03:32.306Z,51.99
2019-03-27T08:06:00.686Z,51.69
2019-03-27T08:08:29.077Z,51.72
2019-03-27T08:10:57.453Z,51.54
2019-03-27T08:13:25.842Z,51.65
2019-03-27T08:15:54.219Z,51.63
2019-03-27T08:18:22.615Z,51.39
2019-03-27T08:20:50.994Z,51.50
2019-03-27T08:23:20.244Z,51.58
2019-03-27T08:25:48.625Z,51.12
2019-03-27T08:28:17.015Z,50.85
2019-03-27T08:30:45.395Z,50.54
2019-03-27T08:33:13.787Z,50.30
2019-03-27T08:35:42.165Z,50.13
2019-03-27T08:38:10.560Z,49.96
2019-03-27T08:40:38.939Z,49.89
2019-03-27T08:43:20.283Z,49.85
2019-03-27T08:45:37.428Z,49.77
2019-03-27T08:48:05.885Z,49.56
2019-03-27T08:50:34.270Z,49.56
2019-03-27T08:53:02.660Z,49.59
2019-03-27T08:55:31.104Z,49.32
2019-03-27T08:57:59.502Z,49.14
2019-03-27T09:00:48.297Z,49.04
2019-03-27T09:03:17.326Z,49.07
2019-03-27T09:05:45.779Z,49.06
2019-03-27T09:08:14.306Z,48.95
2019-03-27T09:10:42.691Z,48.87
2019-03-27T09:13:11.088Z,48.79
2019-03-27T09:15:39.461Z,48.58
2019-03-27T09:18:07.852Z,48.36
2019-03-27T09:20:36.232Z,48.15
2019-03-27T09:23:04.790Z,48.02
2019-03-27T09:25:33.170Z,47.52
2019-03-27T09:28:01.561Z,46.55
2019-03-27T09:30:29.938Z,45.48
2019-03-27T09:32:58.325Z,45.26
2019-03-27T09:35:26.713Z,45.31
2019-03-27T09:37:55.098Z,45.54
2019-03-27T09:40:23.598Z,45.72
2019-03-27T09:42:51.931Z,46.00
2019-03-27T09:45:21.137Z,46.32
2019-03-27T09:47:49.513Z,46.52
2019-03-27T09:50:17.903Z,46.53
2019-03-27T09:52:46.283Z,46.47
2019-03-27T09:55:14.695Z,46.43
2019-03-27T09:57:43.076Z,46.51
2019-03-27T10:00:12.002Z,46.57
2019-03-27T10:02:40.387Z,46.58
2019-03-27T10:05:09.016Z,46.63
2019-03-27T10:07:37.401Z,46.57
2019-03-27T10:10:06.244Z,46.73
2019-03-27T10:12:34.613Z,46.79
2019-03-27T10:15:03.375Z,46.89
2019-03-27T10:17:31.747Z,46.91
2019-03-27T10:20:03.827Z,46.93
2019-03-27T10:22:30.225Z,46.97
2019-03-27T10:24:58.611Z,46.98
2019-03-27T10:27:26.985Z,47.02
2019-03-27T10:29:55.379Z,46.99
2019-03-27T10:32:23.753Z,47.09
2019-03-27T10:34:52.144Z,47.15
2019-03-27T10:37:21.334Z,47.21
2019-03-27T10:39:49.752Z,47.31
2019-03-27T10:42:18.117Z,47.33
2019-03-27T10:44:46.517Z,47.33
2019-03-27T10:47:14.901Z,47.38
2019-03-27T10:49:43.278Z,47.37
2019-03-27T10:52:11.740Z,47.39
2019-03-27T10:54:40.113Z,47.39
2019-03-27T10:57:08.514Z,47.44
2019-03-27T10:59:36.900Z,47.43
2019-03-27T11:02:05.292Z,47.46
2019-03-27T11:04:33.674Z,47.44
2019-03-27T11:07:02.063Z,47.46
2019-03-27T11:09:30.439Z,47.53
2019-03-27T11:11:58.825Z,47.56
2019-03-27T11:14:37.377Z,47.52
2019-03-27T11:16:57.314Z,47.54
2019-03-27T11:19:25.706Z,47.47
2019-03-27T11:21:54.096Z,47.45
2019-03-27T11:24:22.472Z,47.31
2019-03-27T11:26:51.698Z,46.10
2019-03-27T11:29:20.073Z,40.67
2019-03-27T11:31:48.462Z,37.93
2019-03-27T11:34:16.865Z,36.21
2019-03-27T11:36:45.231Z,35.99
2019-03-27T11:39:13.676Z,37.09
2019-03-27T11:41:42.073Z,37.64
2019-03-27T11:44:12.737Z,37.92
2019-03-27T11:46:40.612Z,39.78
2019-03-27T11:49:08.993Z,41.18
2019-03-27T11:51:37.386Z,42.16
2019-03-27T11:54:05.762Z,42.96
2019-03-27T11:56:34.143Z,43.59
2019-03-27T11:59:02.539Z,43.98
2019-03-27T12:01:40.569Z,44.44
2019-03-27T12:04:01.031Z,44.87
2019-03-27T12:06:29.411Z,45.21
2019-03-27T12:08:57.793Z,45.37
2019-03-27T12:11:26.180Z,45.55
2019-03-27T12:13:54.573Z,45.71
2019-03-27T12:16:22.947Z,45.95
2019-03-27T12:18:52.093Z,46.05
2019-03-27T12:21:20.471Z,46.28
2019-03-27T12:23:48.865Z,46.37
2019-03-27T12:26:17.237Z,46.37
2019-03-27T12:28:45.626Z,46.39
2019-03-27T12:31:14.003Z,46.35
2019-03-27T12:33:42.397Z,46.34
2019-03-27T12:36:10.774Z,46.31
2019-03-27T12:38:39.163Z,46.31
2019-03-27T12:41:07.537Z,46.33
2019-03-27T12:43:35.925Z,46.21
2019-03-27T12:46:04.375Z,46.18
2019-03-27T12:48:32.763Z,46.17
2019-03-27T12:51:12.054Z,45.96
2019-03-27T12:53:31.257Z,45.72
2019-03-27T12:55:59.626Z,45.65
2019-03-27T12:58:28.013Z,45.76
2019-03-27T13:00:58.030Z,45.84
2019-03-27T13:03:26.415Z,45.98
2019-03-27T13:05:54.791Z,45.93
2019-03-27T13:08:23.176Z,46.01
2019-03-27T13:10:52.568Z,46.06
2019-03-27T13:13:20.949Z,46.04
2019-03-27T13:15:49.325Z,46.18
2019-03-27T13:18:17.715Z,46.24
2019-03-27T13:20:46.093Z,46.28
2019-03-27T13:23:14.485Z,46.24
2019-03-27T13:25:42.867Z,46.14
2019-03-27T13:28:11.261Z,46.16
2019-03-27T13:30:39.637Z,46.19
2019-03-27T13:33:08.019Z,46.17
2019-03-27T13:35:36.398Z,46.09
2019-03-27T13:38:04.844Z,46.03
2019-03-27T13:40:33.236Z,46.03
2019-03-27T13:43:01.616Z,46.05
2019-03-27T13:45:30.012Z,46.10
2019-03-27T13:47:58.385Z,46.05
2019-03-27T13:50:26.845Z,46.08
2019-03-27T13:52:55.223Z,46.03
2019-03-27T13:55:23.614Z,46.08
2019-03-27T13:57:51.999Z,46.10
2019-03-27T14:00:20.452Z,46.16
2019-03-27T14:02:48.832Z,46.27
2019-03-27T14:05:17.483Z,46.32
2019-03-27T14:07:45.856Z,46.29
2019-03-27T14:10:15.890Z,46.27
2019-03-27T14:12:44.272Z,46.38
2019-03-27T14:15:13.499Z,46.51
2019-03-27T14:17:41.878Z,46.52
2019-03-27T14:20:12.410Z,46.53
2019-03-27T14:22:40.783Z,46.55
2019-03-27T14:25:10.010Z,46.59
2019-03-27T14:27:38.458Z,46.54
2019-03-27T14:30:09.787Z,46.57
2019-03-27T14:32:38.179Z,46.62
2019-03-27T14:35:06.915Z,46.70
2019-03-27T14:37:35.290Z,46.79
2019-03-27T14:40:05.657Z,46.80
2019-03-27T14:42:34.048Z,46.78
2019-03-27T14:45:02.427Z,46.87
2019-03-27T14:47:30.824Z,47.15
2019-03-27T14:49:59.202Z,47.19
2019-03-27T14:52:27.590Z,46.65
2019-03-27T14:54:55.977Z,45.98
2019-03-27T14:57:24.375Z,45.09
2019-03-27T14:59:53.437Z,44.85
2019-03-27T15:02:21.828Z,45.10
2019-03-27T15:04:50.432Z,45.22
2019-03-27T15:07:18.831Z,45.39
2019-03-27T15:09:47.272Z,45.62
2019-03-27T15:12:15.665Z,45.84
2019-03-27T15:14:44.047Z,45.63
2019-03-27T15:17:12.437Z,45.47
2019-03-27T15:19:40.817Z,45.60
2019-03-27T15:22:21.768Z,45.70
2019-03-27T15:24:39.387Z,45.76
2019-03-27T15:27:07.779Z,45.58
2019-03-27T15:29:36.164Z,45.60
2019-03-27T15:32:04.632Z,45.88
2019-03-27T15:34:33.011Z,46.01
2019-03-27T15:37:01.404Z,46.23
2019-03-27T15:39:29.899Z,46.43
2019-03-27T15:41:58.251Z,47.08
2019-03-27T15:44:26.705Z,47.35
2019-03-27T15:46:55.092Z,47.41
2019-03-27T15:49:23.729Z,47.41
2019-03-27T15:51:52.118Z,47.48
2019-03-27T15:54:20.492Z,47.58
2019-03-27T15:56:48.884Z,47.52
2019-03-27T15:59:17.274Z,47.62
2019-03-27T16:01:45.640Z,47.54
2019-03-27T16:04:14.030Z,47.57
2019-03-27T16:06:42.427Z,47.68
2019-03-27T16:09:12.459Z,47.81
2019-03-27T16:11:40.861Z,47.84
2019-03-27T16:14:09.269Z,47.94
2019-03-27T16:16:37.672Z,48.10
2019-03-27T16:19:06.061Z,48.31
2019-03-27T16:21:37.565Z,48.44
2019-03-27T16:24:06.548Z,48.45
2019-03-27T16:26:34.832Z,48.36
2019-03-27T16:29:03.233Z,48.61
2019-03-27T16:31:31.600Z,48.28
2019-03-27T16:33:59.991Z,48.27
2019-03-27T16:36:28.393Z,48.26
2019-03-27T16:38:57.620Z,48.00
2019-03-27T16:41:25.999Z,47.81
2019-03-27T16:43:54.392Z,47.57
2019-03-27T16:46:22.780Z,47.04
2019-03-27T16:48:51.172Z,47.47
2019-03-27T16:51:19.549Z,48.58
2019-03-27T16:53:47.948Z,50.69
2019-03-27T16:56:16.331Z,51.54
2019-03-27T16:58:44.722Z,51.22
2019-03-27T17:01:13.093Z,51.08
2019-03-27T17:03:41.488Z,50.86
2019-03-27T17:06:10.013Z,50.60
2019-03-27T17:08:38.402Z,50.24
2019-03-27T17:11:06.794Z,49.97
2019-03-27T17:13:35.194Z,50.52
2019-03-27T17:16:03.574Z,50.40
2019-03-27T17:18:31.955Z,50.49
2019-03-27T17:21:00.365Z,50.24
2019-03-27T17:23:28.744Z,50.03
2019-03-27T17:25:57.303Z,50.01
2019-03-27T17:28:25.791Z,50.19
2019-03-27T17:30:54.570Z,49.86
2019-03-27T17:33:23.183Z,50.02
2019-03-27T17:35:51.569Z,49.77
2019-03-27T17:38:19.957Z,49.81
2019-03-27T17:40:48.415Z,49.63
2019-03-27T17:43:16.978Z,49.32
2019-03-27T17:45:45.452Z,49.37
2019-03-27T17:48:13.853Z,49.50
2019-03-27T17:50:42.264Z,49.51
2019-03-27T17:53:10.648Z,49.54
2019-03-27T17:55:39.112Z,49.67
2019-03-27T17:58:07.738Z,49.57
2019-03-27T18:00:46.675Z,49.54
2019-03-27T18:03:15.057Z,49.46
2019-03-27T18:05:43.450Z,49.63
2019-03-27T18:08:12.700Z,49.61
2019-03-27T18:10:41.093Z,49.60
2019-03-27T18:13:09.472Z,49.76
2019-03-27T18:15:37.869Z,49.73
2019-03-27T18:18:07.165Z,49.73
2019-03-27T18:20:35.565Z,49.54
2019-03-27T18:23:04.006Z,49.44
2019-03-27T18:25:32.696Z,49.42
2019-03-27T18:28:01.188Z,49.37
2019-03-27T18:30:29.575Z,49.35
2019-03-27T18:32:58.029Z,49.32
2019-03-27T18:35:26.411Z,49.16
2019-03-27T18:37:54.945Z,49.26
2019-03-27T18:40:23.329Z,49.25
2019-03-27T18:42:51.725Z,49.31
2019-03-27T18:45:20.514Z,50.48
2019-03-27T18:47:49.073Z,51.06
2019-03-27T18:50:17.527Z,51.65
2019-03-27T18:52:46.006Z,51.99
2019-03-27T18:55:25.754Z,51.99
2019-03-27T18:57:44.771Z,52.08
2019-03-27T19:00:13.629Z,52.09
2019-03-27T19:02:42.130Z,52.38
2019-03-27T19:05:10.754Z,52.19
2019-03-27T19:07:39.151Z,52.48
2019-03-27T19:10:07.788Z,52.44
2019-03-27T19:12:36.183Z,52.41
2019-03-27T19:15:09.452Z,52.68
2019-03-27T19:17:37.946Z,52.70
2019-03-27T19:20:07.126Z,52.50
2019-03-27T19:22:35.502Z,52.37
2019-03-27T19:25:05.985Z,52.47
2019-03-27T19:27:34.449Z,52.63
2019-03-27T19:30:03.104Z,52.67
2019-03-27T19:32:31.512Z,52.48
2019-03-27T19:34:59.895Z,52.42
2019-03-27T19:37:28.289Z,52.22
2019-03-27T19:39:56.685Z,51.91
2019-03-27T19:42:25.462Z,51.74
2019-03-27T19:44:53.857Z,51.81
2019-03-27T19:47:22.250Z,51.80
2019-03-27T19:49:50.638Z,51.69
2019-03-27T19:52:19.025Z,52.76
2019-03-27T19:54:47.422Z,52.68
2019-03-27T19:57:15.804Z,52.68
2019-03-27T19:59:44.195Z,52.78
2019-03-27T20:02:12.678Z,52.50
2019-03-27T20:04:41.083Z,52.42
2019-03-27T20:07:09.576Z,52.49
2019-03-27T20:09:38.124Z,52.32
2019-03-27T20:12:06.595Z,52.37
2019-03-27T20:14:35.116Z,52.40
2019-03-27T20:17:03.509Z,52.11
2019-03-27T20:19:31.982Z,52.18
2019-03-27T20:22:00.356Z,52.25
2019-03-27T20:24:40.400Z,52.05
2019-03-27T20:26:58.859Z,51.98
2019-03-27T20:29:27.254Z,52.17
2019-03-27T20:31:55.917Z,52.12
2019-03-27T20:34:24.302Z,52.01
2019-03-27T20:36:52.682Z,51.96
2019-03-27T20:39:21.084Z,52.10
2019-03-27T20:41:49.474Z,52.06
2019-03-27T20:44:17.945Z,52.04
2019-03-27T20:46:46.475Z,52.18
2019-03-27T20:49:14.873Z,52.09
2019-03-27T20:51:43.328Z,52.22
2019-03-27T20:54:11.726Z,52.02
2019-03-27T20:56:40.162Z,52.17
2019-03-27T20:59:08.556Z,52.07
2019-03-27T21:01:36.940Z,52.02
2019-03-27T21:04:05.337Z,52.02
2019-03-27T21:06:33.720Z,51.92
2019-03-27T21:09:02.113Z,51.97
2019-03-27T21:11:30.493Z,51.94
2019-03-27T21:13:58.892Z,52.14
2019-03-27T21:16:27.267Z,52.17
2019-03-27T21:18:56.383Z,52.12
2019-03-27T21:21:24.768Z,52.11
2019-03-27T21:23:53.143Z,52.13
2019-03-27T21:26:21.537Z,52.12
2019-03-27T21:28:50.035Z,52.09
2019-03-27T21:31:18.398Z,52.02
2019-03-27T21:33:46.778Z,51.88
2019-03-27T21:36:15.166Z,51.74
2019-03-27T21:38:43.545Z,51.85
2019-03-27T21:41:11.956Z,51.85
2019-03-27T21:43:40.329Z,51.90
2019-03-27T21:46:08.715Z,51.81
2019-03-27T21:48:37.094Z,51.81
2019-03-27T21:51:05.504Z,51.91
2019-03-27T21:53:33.887Z,51.93
2019-03-27T21:56:02.281Z,51.92
2019-03-27T21:58:30.668Z,51.91
2019-03-27T22:01:01.415Z,51.92
2019-03-27T22:03:29.160Z,51.89
2019-03-27T22:05:57.554Z,51.90
2019-03-27T22:08:26.771Z,51.80
2019-03-27T22:10:55.159Z,51.83
2019-03-27T22:13:23.626Z,51.82
2019-03-27T22:15:52.009Z,51.77
2019-03-27T22:18:20.386Z,51.75
2019-03-27T22:20:48.781Z,51.75
2019-03-27T22:23:17.158Z,51.74
2019-03-27T22:25:45.550Z,51.69
2019-03-27T22:28:13.934Z,51.69
2019-03-27T22:30:42.333Z,51.68
2019-03-27T22:33:10.705Z,51.65
2019-03-27T22:35:39.098Z,51.60
2019-03-27T22:38:07.474Z,51.64
2019-03-27T22:40:35.869Z,51.57
2019-03-27T22:43:04.317Z,51.56
2019-03-27T22:45:32.730Z,51.49
2019-03-27T22:48:01.122Z,51.46
2019-03-27T22:50:29.506Z,51.49
2019-03-27T22:52:57.894Z,51.50
2019-03-27T22:55:27.132Z,51.45
2019-03-27T22:57:55.527Z,51.41
2019-03-27T23:00:25.541Z,51.42
2019-03-27T23:02:53.924Z,51.43
2019-03-27T23:05:22.304Z,51.41
2019-03-27T23:07:50.689Z,51.45
2019-03-27T23:10:19.069Z,51.43
2019-03-27T23:12:47.460Z,51.35
2019-03-27T23:15:15.833Z,51.34
2019-03-27T23:17:44.223Z,51.32
2019-03-27T23:20:12.853Z,51.30
2019-03-27T23:22:41.243Z,51.31
2019-03-27T23:25:09.796Z,51.28
2019-03-27T23:27:38.170Z,51.30
2019-03-27T23:30:08.988Z,51.21
2019-03-27T23:32:37.385Z,51.28
2019-03-27T23:35:07.705Z,51.29
2019-03-27T23:37:36.268Z,51.30
2019-03-27T23:40:06.486Z,51.27
2019-03-27T23:42:34.885Z,51.25
2019-03-27T23:45:04.013Z,51.21
2019-03-27T23:47:32.404Z,51.24
2019-03-27T23:50:00.775Z,51.25
2019-03-27T23:52:29.159Z,51.24
2019-03-27T23:54:57.711Z,51.16
2019-03-27T23:57:26.104Z,51.17
2019-03-27T23:59:54.480Z,51.16
